Latest Weather Observations for Maria Island

IDT60901

Issued at 12:31 pm EDT Tuesday 23 December 2014 (issued every 10 minutes, with the page automatically refreshed every 10 minutes)

About weather observations | Map of Hobart area stations | Latest observations for Hobart area | Other Formats
Station Details ID: 092124 Name: MARIA ISLAND (POINT LESUEUR) Lat: -42.66 Lon: 148.02 Height: 28.0 m
Data from the previous 72 hours. | See also: Recent months at Maria Island
Date/Time
EDT
Tmp

°C
App
Tmp
°C
Dew
Point
°C
Rel
Hum
%
Delta-T

°C
Wind Press
QNH
hPa
Press
MSL
hPa
Rain
since
9 am
mm
Dir
 
Spd
km/h
Gust
km/h
Spd
kts
Gust
kts
23/12:30pm 18.3 15.7 15.9 86 1.4 N 24 28 13 15 1003.3 1003.2 0.0
23/12:00pm 18.7 16.8 15.8 83 1.7 N 20 22 11 12 1003.7 1003.6 0.0
23/11:30am 18.0 14.9 15.6 86 1.4 N 26 28 14 15 1003.8 1003.7 0.0
23/11:00am 18.9 16.8 16.3 85 1.6 N 22 28 12 15 1003.9 1003.8 0.0
23/10:30am 17.9 14.9 16.8 93 0.7 N 28 32 15 17 1004.2 1004.1 0.0
23/10:00am 17.2 16.6 16.7 97 0.3 N 15 17 8 9 1004.4 1004.3 0.0
23/09:30am 16.8 16.9 16.5 98 0.2 N 11 13 6 7 1004.6 1004.5 0.0
23/09:00am 16.6 17.0 16.3 98 0.2 N 9 13 5 7 1005.1 1005.0 0.2
23/08:30am 16.7 16.8 16.4 98 0.2 NNW 11 15 6 8 1005.6 1005.5 0.2
23/08:00am 16.6 16.6 16.3 98 0.2 NNW 11 17 6 9 1005.8 1005.7 0.2
23/07:30am 16.6 17.6 16.3 98 0.2 NW 6 9 3 5 1005.7 1005.6 0.2
23/07:00am 16.3 15.8 15.8 97 0.3 NW 13 17 7 9 1006.2 1006.1 0.2
23/06:30am 16.1 16.8 15.6 97 0.3 NW 6 9 3 5 1006.4 1006.3 0.2
23/05:30am 15.8 17.1 15.2 96 0.3 WNW 2 4 1 2 1006.2 1006.1 0.2
23/05:00am 15.7 17.4 15.1 96 0.3 CALM 0 6 0 3 1006.7 1006.6 0.2
23/04:30am 15.7 14.1 15.1 96 0.3 NW 17 22 9 12 1006.7 1006.6 0.2
23/04:00am 15.8 16.1 15.0 95 0.5 WNW 7 11 4 6 1007.2 1007.1 0.2
23/03:30am 15.7 16.5 14.9 95 0.5 NNW 4 9 2 5 1007.9 1007.8 0.2
23/03:00am 15.7 16.0 14.9 95 0.5 N 7 9 4 5 1008.4 1008.3 0.2
23/02:30am 15.9 15.9 15.1 95 0.5 N 9 11 5 6 1008.7 1008.6 0.0
23/02:00am 16.0 15.5 15.0 94 0.6 NNW 11 13 6 7 1009.5 1009.4 0.0
23/01:30am 16.0 15.2 15.0 94 0.6 N 13 15 7 8 1010.0 1009.9 0.0
23/01:00am 15.9 15.8 14.9 94 0.6 N 9 11 5 6 1010.4 1010.3 0.0
23/12:30am 16.0 16.9 15.0 94 0.6 N 4 4 2 2 1010.9 1010.8 0.0
23/12:00am 16.1 16.1 15.1 94 0.6 NNW 9 9 5 5 1011.6 1011.5 0.0
 
Date/Time
EDT
Tmp

°C
App
Tmp
°C
Dew
Point
°C
Rel
Hum
%
Delta-T

°C
Wind Press
QNH
hPa
Press
MSL
hPa
Rain
since
9 am
mm
Dir
 
Spd
km/h
Gust
km/h
Spd
kts
Gust
kts
22/11:30pm 16.0 15.5 15.0 94 0.6 NW 11 15 6 8 1012.1 1012.0 0.0
22/11:00pm 16.2 15.0 15.1 93 0.6 NNW 15 19 8 10 1012.6 1012.6 0.0
22/10:30pm 16.2 14.3 15.1 93 0.6 N 19 20 10 11 1012.4 1012.4 0.0
22/10:00pm 16.3 14.1 14.8 91 0.9 N 20 22 11 12 1012.3 1012.3 0.0
22/09:30pm 16.2 14.0 14.9 92 0.7 N 20 24 11 13 1012.3 1012.3 0.0
22/09:00pm 16.3 14.4 14.3 88 1.1 N 17 22 9 12 1012.3 1012.3 0.0
22/08:30pm 16.6 12.2 14.1 85 1.4 NNE 30 33 16 18 1012.4 1012.4 0.0
22/08:00pm 16.8 11.9 13.7 82 1.8 NNE 32 39 17 21 1012.1 1012.0 0.0
22/07:30pm 16.9 13.1 13.6 81 1.9 NNE 26 30 14 16 1012.2 1012.1 0.0
22/07:00pm 17.5 13.7 13.6 78 2.2 NNE 26 33 14 18 1012.2 1012.1 0.0
22/06:30pm 17.6 13.5 13.7 78 2.2 NNE 28 33 15 18 1012.4 1012.4 0.0
22/06:00pm 17.6 12.9 13.3 76 2.4 NNE 30 39 16 21 1012.6 1012.6 0.0
22/05:30pm 17.8 13.5 13.3 75 2.5 NNE 28 37 15 20 1013.1 1013.1 0.0
22/05:00pm 17.8 12.8 13.3 75 2.5 NNE 32 37 17 20 1013.3 1013.3 0.0
22/04:30pm 18.1 13.3 13.0 72 2.9 NNE 30 39 16 21 1013.6 1013.6 0.0
22/04:00pm 17.6 12.9 13.1 75 2.5 NNE 30 39 16 21 1013.8 1013.8 0.0
22/03:30pm 17.7 13.6 12.6 72 2.8 NNE 26 32 14 17 1014.1 1014.1 0.0
22/03:00pm 18.2 12.9 12.6 70 3.1 NNE 32 37 17 20 1014.3 1014.3 0.0
22/02:30pm 18.5 13.5 12.3 67 3.4 NNE 30 33 16 18 1014.3 1014.3 0.0
22/02:00pm 19.1 15.3 12.4 65 3.7 NNE 24 30 13 16 1014.5 1014.5 0.0
22/01:30pm 19.3 15.8 12.3 64 3.9 NE 22 26 12 14 1014.9 1014.9 0.0
22/01:00pm 18.2 13.6 12.2 68 3.3 NNE 28 32 15 17 1014.8 1014.8 0.0
22/12:30pm 17.9 17.4 11.9 68 3.3 SW 6 9 3 5 1015.2 1015.2 0.0
22/12:00pm 17.7 15.5 12.2 70 3.0 SSE 15 24 8 13 1015.2 1015.2 0.0
22/11:30am 17.6 15.3 11.9 69 3.1 SE 15 20 8 11 1015.4 1015.4 0.0
22/11:00am 17.7 15.8 11.7 68 3.3 E 13 19 7 10 1015.6 1015.6 0.0
22/10:30am 17.1 16.2 11.4 69 3.1 N 7 11 4 6 1015.9 1015.9 0.0
22/10:00am 16.7 15.5 11.6 72 2.8 WNW 9 17 5 9 1016.0 1016.0 0.0
22/09:30am 15.9 15.0 11.5 75 2.4 NW 7 9 4 5 1016.1 1016.1 0.0
22/09:00am 15.8 12.5 11.0 73 2.6 ESE 19 22 10 12 1015.9 1015.9 0.0
22/08:30am 15.6 12.8 11.2 75 2.4 ESE 17 22 9 12 1015.7 1015.7 0.0
22/08:00am 15.0 11.7 11.0 77 2.1 E 19 22 10 12 1015.5 1015.5 0.0
22/07:30am 14.7 12.5 10.9 78 2.0 E 13 17 7 9 1015.5 1015.5 0.0
22/07:00am 14.4 12.8 11.6 83 1.5 E 11 13 6 7 1015.3 1015.3 0.0
22/06:30am 14.0 11.9 11.2 83 1.5 E 13 17 7 9 1015.0 1015.0 0.0
22/06:00am 14.1 13.2 11.4 84 1.4 E 7 13 4 7 1014.7 1014.7 0.0
22/05:30am 13.6 12.9 11.5 87 1.1 E 6 7 3 4 1014.4 1014.4 0.0
22/05:00am 13.8 13.2 11.8 88 1.1 ENE 6 7 3 4 1014.4 1014.4 0.0
22/04:30am 13.7 13.7 12.3 91 0.8 ENE 4 6 2 3 1014.1 1014.1 0.0
22/04:00am 12.9 12.6 11.6 92 0.7 NE 4 6 2 3 1014.0 1014.0 0.0
22/03:30am 12.9 12.7 11.8 93 0.6 ENE 4 6 2 3 1013.9 1013.9 0.0
22/03:00am 13.1 13.0 12.2 94 0.5 E 4 7 2 4 1013.9 1013.9 0.0
22/02:30am 13.1 12.3 11.8 92 0.7 WNW 7 7 4 4 1013.8 1013.8 0.0
22/02:00am 13.5 13.7 11.9 90 0.9 W 2 7 1 4 1013.8 1013.8 0.0
22/01:30am 13.2 13.2 11.3 88 1.0 SW 2 9 1 5 1013.9 1013.9 0.0
22/01:00am 13.6 13.4 11.8 89 1.0 ESE 4 9 2 5 1013.8 1013.8 0.0
22/12:30am 14.2 13.6 12.4 89 1.0 E 7 11 4 6 1013.6 1013.6 0.0
22/12:00am 14.3 13.4 12.5 89 1.0 E 9 15 5 8 1013.5 1013.5 0.0
 
Date/Time
EDT
Tmp

°C
App
Tmp
°C
Dew
Point
°C
Rel
Hum
%
Delta-T

°C
Wind Press
QNH
hPa
Press
MSL
hPa
Rain
since
9 am
mm
Dir
 
Spd
km/h
Gust
km/h
Spd
kts
Gust
kts
21/11:30pm 14.5 13.9 12.2 86 1.2 E 7 11 4 6 1013.2 1013.2 0.0
21/11:00pm 15.0 13.6 12.3 84 1.5 E 11 15 6 8 1013.3 1013.3 0.0
21/10:30pm 15.5 15.4 12.1 80 1.9 SE 4 9 2 5 1013.2 1013.2 0.0
21/10:00pm 16.0 15.0 12.2 78 2.1 SSE 9 13 5 7 1012.6 1012.6 0.0
21/09:30pm 15.7 14.6 12.1 79 2.0 ESE 9 13 5 7 1012.2 1012.1 0.0
21/09:00pm 16.1 13.2 12.3 78 2.1 SSE 19 20 10 11 1011.8 1011.7 0.0
21/08:30pm 16.9 14.0 12.4 75 2.5 SSE 19 22 10 12 1011.2 1011.1 0.0
21/08:00pm 17.2 15.2 12.7 75 2.5 SE 15 19 8 10 1010.8 1010.7 0.0
21/07:30pm 18.1 15.5 13.8 76 2.5 SSE 20 28 11 15 1010.1 1010.0 0.0
21/07:00pm 18.4 15.9 14.1 76 2.5 S 20 28 11 15 1009.7 1009.6 0.0
21/06:30pm 18.6 16.7 14.3 76 2.5 SSW 17 24 9 13 1009.3 1009.2 0.0
21/06:00pm 19.1 18.9 13.5 70 3.2 SSW 7 9 4 5 1008.9 1008.8 0.0
21/05:30pm 19.2 19.1 14.0 72 3.0 WNW 7 11 4 6 1008.7 1008.6 0.0
21/05:00pm 18.5 16.1 13.8 74 2.7 NNW 19 22 10 12 1008.9 1008.8 0.0
21/04:30pm 20.4 19.9 13.8 66 3.8 NW 9 13 5 7 1008.8 1008.7 0.0
21/04:00pm 19.1 16.7 13.9 72 3.0 NNW 19 24 10 13 1008.8 1008.7 0.0
21/03:30pm 19.3 16.3 13.7 70 3.2 N 22 28 12 15 1009.0 1008.9 0.0
21/03:00pm 19.7 17.0 13.4 67 3.6 N 20 26 11 14 1009.4 1009.3 0.0
21/02:30pm 19.7 15.5 13.4 67 3.6 N 28 32 15 17 1009.6 1009.5 0.0
21/02:00pm 19.2 16.0 13.2 68 3.4 N 22 28 12 15 1010.2 1010.1 0.0
21/01:30pm 19.3 14.4 12.6 65 3.8 N 30 37 16 20 1010.4 1010.3 0.0
21/01:00pm 19.9 15.3 12.4 62 4.2 NNE 28 35 15 19 1010.3 1010.2 0.0
21/12:30pm 19.6 14.3 11.4 59 4.5 NNE 30 37 16 20 1011.0 1010.9 0.0
21/12:00pm 19.0 13.1 11.1 60 4.3 NNE 33 43 18 23 1011.2 1011.1 0.0
21/11:30am 19.6 14.0 11.6 60 4.4 N 32 37 17 20 1011.6 1011.5 0.0
21/11:00am 19.4 14.1 11.4 60 4.4 N 30 35 16 19 1012.1 1012.0 0.0
21/10:30am 17.9 12.7 11.5 66 3.5 N 30 33 16 18 1013.1 1013.1 0.0
21/10:00am 18.4 13.3 11.9 66 3.6 N 30 33 16 18 1013.3 1013.3 0.0
21/09:30am 17.3 12.5 11.8 70 3.0 N 28 33 15 18 1013.7 1013.7 0.0
21/09:00am 16.4 12.6 11.3 72 2.7 N 22 24 12 13 1014.0 1014.0 0.0
21/08:30am 15.6 11.8 11.0 74 2.5 N 22 26 12 14 1014.0 1014.0 0.0
21/08:00am 15.9 12.5 10.7 71 2.8 N 19 24 10 13 1013.9 1013.9 0.0
21/07:30am 15.0 13.6 10.8 76 2.2 N 9 19 5 10 1014.3 1014.3 0.0
21/07:00am 14.0 11.3 10.2 78 2.0 NE 15 19 8 10 1014.4 1014.4 0.0
21/06:30am 13.9 12.8 10.5 80 1.8 N 7 9 4 5 1015.3 1015.3 0.0
21/06:00am 13.7 12.7 10.3 80 1.8 N 6 11 3 6 1015.3 1015.3 0.0
21/05:30am 13.4 11.8 10.2 81 1.7 NNE 9 13 5 7 1014.8 1014.8 0.0
21/05:00am 13.4 11.3 9.8 79 1.8 NE 11 15 6 8 1014.4 1014.4 0.0
21/04:30am 13.3 10.8 9.7 79 1.8 NNE 13 20 7 11 1014.2 1014.2 0.0
21/04:00am 13.3 12.3 8.8 74 2.3 NE 4 6 2 3 1014.1 1014.1 0.0
21/03:30am 13.2 11.6 8.9 75 2.2 NE 7 7 4 4 1014.2 1014.2 0.0
21/03:00am 13.4 12.0 8.9 74 2.3 ENE 6 6 3 3 1014.5 1014.5 0.0
21/02:30am 13.3 11.9 8.8 74 2.3 E 6 9 3 5 1014.8 1014.8 0.0
21/02:00am 13.5 11.9 8.8 73 2.4 E 7 7 4 4 1015.1 1015.1 0.0
21/01:30am 13.6 12.3 9.1 74 2.3 ESE 6 7 3 4 1015.5 1015.5 0.0
21/01:00am 13.5 12.0 9.0 74 2.3 ESE 7 9 4 5 1015.7 1015.7 0.0
21/12:30am 13.3 11.8 9.0 75 2.2 SE 7 11 4 6 1015.8 1015.8 0.0
21/12:00am 13.6 11.3 9.1 74 2.3 SE 11 15 6 8 1016.0 1016.0 0.0
 
Date/Time
EDT
Tmp

°C
App
Tmp
°C
Dew
Point
°C
Rel
Hum
%
Delta-T

°C
Wind Press
QNH
hPa
Press
MSL
hPa
Rain
since
9 am
mm
Dir
 
Spd
km/h
Gust
km/h
Spd
kts
Gust
kts
20/11:30pm 13.3 10.9 8.8 74 2.3 SSE 11 15 6 8 1016.0 1016.0 0.0
20/11:00pm 13.6 10.8 8.4 71 2.6 SE 13 15 7 8 1015.9 1015.9 0.0
20/10:30pm 13.7 11.4 9.0 73 2.4 SSE 11 15 6 8 1016.1 1016.1 0.0
20/10:00pm 13.7 9.9 9.7 77 2.1 S 20 24 11 13 1016.0 1016.0 0.0
20/09:30pm 13.8 10.6 9.8 77 2.1 SE 17 20 9 11 1015.9 1015.9 0.0
20/09:00pm 14.0 9.4 9.8 76 2.2 SSE 24 30 13 16 1015.4 1015.4 0.0
20/08:30pm 14.3 10.6 9.3 72 2.6 SE 19 30 10 16 1015.4 1015.4 0.0
20/08:00pm 15.4 12.5 9.7 69 3.0 SE 15 20 8 11 1015.1 1015.1 0.0
20/07:30pm 15.8 10.1 9.7 67 3.2 S 30 35 16 19 1014.5 1014.5 0.0
20/07:00pm 16.4 10.5 11.1 71 2.8 SSW 33 39 18 21 1013.8 1013.8 0.0
20/06:30pm 15.8 8.9 10.3 70 2.9 SSW 37 43 20 23 1013.2 1013.2 0.0
20/06:00pm 15.9 9.0 10.4 70 2.9 SSW 37 43 20 23 1012.8 1012.8 0.0
20/05:59pm 16.0 9.2 10.7 71 2.8 SSW 37 43 20 23 1012.8 1012.8 0.0
20/05:30pm 16.7 13.4 11.0 69 3.1 SSE 19 24 10 13 1012.9 1012.9 0.0
20/05:00pm 16.5 12.5 10.4 67 3.2 SE 22 28 12 15 1012.7 1012.7 0.0
20/04:30pm 17.8 13.2 11.1 65 3.6 SSE 26 32 14 17 1012.4 1012.4 0.0
20/04:00pm 17.9 14.1 11.2 65 3.6 SE 22 28 12 15 1012.1 1012.0 0.0
20/03:30pm 18.9 15.6 11.7 63 4.0 ESE 20 26 11 14 1011.9 1011.8 0.0
20/03:00pm 18.2 14.4 11.3 64 3.8 ESE 22 30 12 16 1011.8 1011.7 0.0
20/02:30pm 17.5 12.8 12.0 70 3.0 E 28 35 15 19 1011.7 1011.6 0.0
20/02:00pm 16.9 12.6 12.0 73 2.7 ESE 26 35 14 19 1011.8 1011.7 0.0
20/01:30pm 18.2 11.5 9.8 58 4.4 S 35 39 19 21 1011.5 1011.4 0.0
20/01:00pm 17.9 12.0 10.3 61 4.1 S 32 39 17 21 1011.3 1011.2 0.0

Latest Capital City Observations: Canberra | Sydney | Melbourne | Brisbane | Adelaide | Perth | Hobart | Darwin

Other Formats:

Comma delimited format used in spreadsheet applications
http://www.bom.gov.au/fwo/IDT60901/IDT60901.95988.axf

JavaScript Object Notation format (JSON) in row-major order
http://www.bom.gov.au/fwo/IDT60901/IDT60901.95988.json